Winnipeg, Manitoba

6:42 PM CST on March 01, 2015 (GMT -0600)
Winnipeg International | Change Station
CLOSE
Current Station
Airport
Location: Winnipeg,
Elevation: 784 ft
Nearby Weather Stations

Elev 784 ft 49.90 °N, 97.23 °W | Updated 42 minutes ago

Scattered Clouds
Scattered Clouds
16 °F
Feels Like 4 °F
N
9
Wind Variable Wind from West

Tomorrow is forecast to be nearly the same temperature as today.

Today
High -- | Low -- °F
--% Chance of Precip.
Yesterday
High -- | Low -- °F
Precip. -- in
7:12 AM 6:10 PM
Waxing Gibbous, 88% visible
Pressure 30.29 in
Visibility 15.0 miles
Clouds Scattered Clouds 4500 ft
Windchill 4 °F
Dew Point 5 °F
Humidity 62%
Rainfall 0.00 in
Snow Depth Not available.
UV 0 out of 12
Pollen Not available.
Air Quality Not available.
Flu Activity Not available.
METAR CYWG 020000Z 27008KT 15SM SCT045 M09/M15 A3022 RMK SC4 SLP256

More Conditions Fewer Conditions

Pressure 30.29 in
Visibility 15.0 miles
Clouds Scattered Clouds 4500 ft
Windchill 4 °F
Dew Point 5 °F
Humidity 62%
Rainfall 0.00 in
Snow Depth Not available.
UV 0 out of 12
Pollen Not available.
Air Quality Not available.
Flu Activity Not available.
METAR CYWG 020000Z 27008KT 15SM SCT045 M09/M15 A3022 RMK SC4 SLP256

More Conditions Fewer Conditions

10-Day Weather Forecast

Almanac

Astronomy

Mar. 01, 2015 Rise Set
Actual Time
Civil Twilight
Nautical Twilight
Astronomical Twilight
Moon
Length of Visible Light
Length of Day
Tomorrow will be .
, % of the Moon is Illuminated

Today's Extremes

Country Highs Country Lows

Community

WunderPhotos

Upload Photos

1,801,659 photos uploaded!

WunderBlogs® & News

Nearby

Air Quality

  Air Quality AQ Index Pollutant
Not available.

Snow Depth

Station Depth Elevation

Earthquake Activity

City Distance Mag. Time & Date
Minimum magnitude displayed is 2.5.

Coastal Water Temperatures

Place Temperature

Nearby Weather Stations